Time;durP1;ratioP1;P1;durP2;ratioP2;P2;SDS_P1;SDS_P2;PMS_P1;PMS_P2;Temp;Humidity;BMP_temperature;BMP_pressure;BME280_temperature;BME280_humidity;BME280_pressure;Samples;Min_cycle;Max_cycle;Signal;HPM_P1;HPM_P2
2022/08/29 00:01:23;;;;;;;15.98;9.93;;;;;;;22.99;68.56;99890.59;5066758;28;20542;-35
2022/08/29 00:03:49;;;;;;;19.10;9.90;;;;;;;22.75;70.29;99888.94;5048688;28;20028;-29
2022/08/29 00:06:15;;;;;;;13.40;8.98;;;;;;;22.76;69.24;99881.56;5066533;28;20033;-29
2022/08/29 00:08:40;;;;;;;18.35;10.68;;;;;;;22.62;70.58;99889.75;5066739;28;20459;-28
2022/08/29 00:11:06;;;;;;;16.80;9.27;;;;;;;22.55;70.70;99887.44;5066747;28;20493;-28
2022/08/29 00:13:33;;;;;;;18.40;9.30;;;;;;;22.44;71.49;99892.28;5048419;28;20563;-33
2022/08/29 00:15:58;;;;;;;14.20;9.55;;;;;;;22.40;72.03;99899.41;5048362;28;20033;-29
2022/08/29 00:18:24;;;;;;;17.67;9.85;;;;;;;22.22;72.30;99898.38;5066705;28;20035;-30
2022/08/29 00:20:50;;;;;;;14.70;10.02;;;;;;;22.22;73.09;99884.78;5067015;28;20446;-28
2022/08/29 00:23:16;;;;;;;14.43;9.40;;;;;;;22.37;72.57;99896.50;5066806;28;20048;-29
2022/08/29 00:25:41;;;;;;;16.02;9.57;;;;;;;22.39;70.67;99880.69;5066443;28;20032;-32
2022/08/29 00:28:07;;;;;;;16.08;9.20;;;;;;;22.46;69.23;99879.19;5066327;28;20056;-28
2022/08/29 00:30:34;;;;;;;15.70;9.65;;;;;;;22.49;68.74;99887.84;5066232;28;20024;-32
2022/08/29 00:32:59;;;;;;;13.55;9.30;;;;;;;22.38;69.79;99898.13;5048445;28;20044;-32
2022/08/29 00:35:29;;;;;;;15.07;8.82;;;;;;;22.27;69.27;99886.63;5067961;28;20029;-29
2022/08/29 00:37:55;;;;;;;17.30;10.40;;;;;;;22.21;71.42;99898.66;5052414;28;20528;-38
2022/08/29 00:40:25;;;;;;;23.02;11.50;;;;;;;22.12;71.77;99905.91;5052093;28;20031;-28
2022/08/29 00:42:51;;;;;;;17.00;10.35;;;;;;;22.16;71.30;99896.06;5051997;28;20409;-29
2022/08/29 00:45:17;;;;;;;16.23;10.10;;;;;;;22.13;71.14;99883.06;5051975;28;20066;-29
2022/08/29 00:47:48;;;;;;;16.60;9.10;;;;;;;22.23;69.79;99878.28;5051873;28;20068;-28
2022/08/29 00:50:37;;;;;;;17.38;9.63;;;;;;;22.38;69.57;99885.34;5051730;28;20028;-28
2022/08/29 00:53:07;;;;;;;17.63;10.02;;;;;;;22.37;69.34;99878.31;5052063;28;20039;-29
2022/08/29 00:55:34;;;;;;;16.50;10.27;;;;;;;22.52;68.98;99892.69;5051616;28;20432;-29
2022/08/29 00:58:20;;;;;;;19.60;10.57;;;;;;;22.67;68.05;99897.78;5051891;28;20054;-28
2022/08/29 01:00:47;;;;;;;18.58;10.57;;;;;;;22.48;69.33;99891.69;5069927;28;20500;-31
2022/08/29 01:03:13;;;;;;;20.02;11.70;;;;;;;22.46;69.76;99890.06;5051886;28;20032;-32
2022/08/29 01:05:38;;;;;;;22.05;10.70;;;;;;;22.44;70.23;99886.84;5069841;28;20032;-34
2022/08/29 01:08:05;;;;;;;15.40;9.77;;;;;;;22.58;69.44;99895.00;5069375;28;20028;-30
2022/08/29 01:13:15;;;;;;;20.73;11.07;;;;;;;22.20;71.44;99891.63;5069621;28;20035;-30
2022/08/29 01:15:42;;;;;;;17.98;11.32;;;;;;;22.13;72.39;99889.31;5051403;28;20041;-33
2022/08/29 01:18:09;;;;;;;16.17;10.77;;;;;;;22.14;72.81;99893.63;5051254;28;20039;-30
2022/08/29 01:20:56;;;;;;;16.80;11.77;;;;;;;22.34;72.13;99895.19;5051205;28;20591;-32
2022/08/29 01:24:10;;;;;;;22.58;10.82;;;;;;;22.39;72.26;99886.97;5051575;28;20089;-29
2022/08/29 01:26:36;;;;;;;17.83;10.63;;;;;;;22.45;71.37;99896.63;5006802;28;20044;-31
2022/08/29 01:29:02;;;;;;;18.25;10.57;;;;;;;22.08;73.36;99895.63;5006581;28;20029;-30
2022/08/29 01:31:37;;;;;;;17.30;10.77;;;;;;;22.16;72.98;99864.25;5032026;28;20496;-29
2022/08/29 01:34:03;;;;;;;13.95;10.55;;;;;;;22.43;71.94;99879.81;5051071;28;20052;-28
2022/08/29 01:36:34;;;;;;;16.80;10.20;;;;;;;22.49;71.16;99874.25;5069249;28;20032;-29
2022/08/29 01:39:00;;;;;;;17.33;10.80;;;;;;;22.57;70.90;99898.81;5051231;28;20028;-31
2022/08/29 01:41:25;;;;;;;16.63;11.57;;;;;;;22.10;73.15;99886.41;5068794;28;20043;-29
2022/08/29 01:43:54;;;;;;;18.35;10.57;;;;;;;22.31;72.02;99903.13;5050951;28;20028;-28
2022/08/29 01:46:23;;;;;;;15.30;10.77;;;;;;;22.24;71.70;99892.66;5068037;28;20488;-32
2022/08/29 01:48:49;;;;;;;19.02;11.32;;;;;;;22.37;71.70;99899.22;5050807;28;20057;-30
2022/08/29 01:51:15;;;;;;;16.98;11.60;;;;;;;22.15;72.46;99878.97;5068832;28;20544;-33
2022/08/29 01:53:41;;;;;;;19.70;10.73;;;;;;;22.21;72.27;99893.22;5050614;28;20169;-31
2022/08/29 01:56:38;;;;;;;16.67;10.95;;;;;;;22.27;72.06;99892.06;5050113;28;20029;-32
2022/08/29 01:59:05;;;;;;;;;;;;;;;22.32;72.32;99897.41;5042955;28;20504;-30
2022/08/29 02:01:34;;;;;;;16.08;10.52;;;;;;;21.92;74.27;99891.59;5068447;28;19916;-34
2022/08/29 02:04:00;;;;;;;13.80;10.25;;;;;;;21.47;76.04;99891.25;5050347;28;20405;-32
2022/08/29 02:06:26;;;;;;;16.08;10.40;;;;;;;20.93;78.56;99881.75;5050155;28;20035;-29
2022/08/29 02:08:53;;;;;;;20.15;10.90;;;;;;;21.03;77.39;99897.88;5050673;28;20028;-30
2022/08/29 02:11:19;;;;;;;15.18;11.02;;;;;;;21.27;76.42;99895.88;5068453;28;20461;-32
2022/08/29 02:13:49;;;;;;;18.25;11.02;;;;;;;21.13;76.68;99881.44;5050579;28;20467;-31
2022/08/29 02:16:16;;;;;;;19.67;10.85;;;;;;;20.96;78.22;99900.13;5050067;28;20036;-28
2022/08/29 02:18:41;;;;;;;16.55;10.77;;;;;;;21.43;76.23;99898.38;5068424;28;20025;-34
2022/08/29 02:21:09;;;;;;;20.25;11.20;;;;;;;21.34;76.34;99900.13;5068591;28;20043;-29
2022/08/29 02:23:36;;;;;;;18.85;11.75;;;;;;;21.28;76.99;99899.38;5050542;28;20086;-29
2022/08/29 02:26:02;;;;;;;17.92;10.88;;;;;;;20.55;80.68;99897.91;5049947;28;20159;-28
2022/08/29 02:28:28;;;;;;;15.43;10.43;;;;;;;20.42;80.66;99880.44;5050098;28;20408;-29
2022/08/29 02:30:55;;;;;;;18.75;11.38;;;;;;;20.92;77.93;99891.75;5068267;28;20025;-28
2022/08/29 02:33:20;;;;;;;16.33;11.23;;;;;;;21.10;77.59;99898.28;5068276;28;20090;-28
2022/08/29 02:35:47;;;;;;;15.68;11.15;;;;;;;20.80;79.08;99892.19;5068436;28;20450;-29
2022/08/29 02:38:13;;;;;;;20.00;11.45;;;;;;;20.77;80.00;99910.94;5049495;28;20024;-33
2022/08/29 02:40:40;;;;;;;17.58;10.48;;;;;;;20.98;78.66;99900.63;5049911;28;20072;-29
2022/08/29 02:43:06;;;;;;;19.13;9.90;;;;;;;21.03;77.98;99912.22;5067711;28;20032;-29
2022/08/29 02:45:35;;;;;;;17.33;10.70;;;;;;;21.07;77.93;99909.72;5067626;28;20040;-28
2022/08/29 02:48:00;;;;;;;22.60;11.48;;;;;;;20.86;79.34;99915.44;5045568;28;20045;-29
2022/08/29 02:50:26;;;;;;;21.42;10.93;;;;;;;20.90;79.76;99915.63;5047660;28;20036;-31
2022/08/29 02:52:52;;;;;;;19.38;12.05;;;;;;;21.16;78.20;99918.81;5046360;28;20043;-29
2022/08/29 02:55:20;;;;;;;22.67;12.75;;;;;;;21.17;77.77;99931.28;5046237;28;20036;-31
2022/08/29 02:57:46;;;;;;;22.85;12.10;;;;;;;21.11;77.61;99918.91;5045389;28;20510;-30
2022/08/29 03:00:16;;;;;;;20.13;11.98;;;;;;;20.89;77.99;99896.97;5047251;28;20040;-31
2022/08/29 03:02:44;;;;;;;17.35;11.65;;;;;;;21.01;78.01;99903.56;5045839;28;20056;-29
2022/08/29 03:05:10;;;;;;;17.23;12.18;;;;;;;21.03;78.55;99920.34;5047688;28;20079;-30
2022/08/29 03:07:35;;;;;;;17.23;10.93;;;;;;;20.99;78.57;99916.59;5047384;28;20041;-29
2022/08/29 03:10:01;;;;;;;16.25;10.77;;;;;;;20.97;78.76;99926.13;5047162;28;20571;-30
2022/08/29 03:12:27;;;;;;;17.23;10.63;;;;;;;21.04;78.86;99929.28;5047355;28;20032;-32
2022/08/29 03:14:53;;;;;;;18.33;11.57;;;;;;;20.92;79.33;99935.13;5045771;28;20417;-30
2022/08/29 03:17:18;;;;;;;17.15;10.90;;;;;;;20.89;79.05;99918.66;5047274;28;20029;-29
2022/08/29 03:19:44;;;;;;;16.42;10.52;;;;;;;20.91;79.48;99938.16;5047415;28;20507;-29
2022/08/29 03:22:09;;;;;;;22.90;10.85;;;;;;;20.91;79.61;99949.78;5047113;28;20028;-28
2022/08/29 03:24:35;;;;;;;19.48;12.05;;;;;;;21.03;78.74;99938.53;5047120;28;20029;-29
2022/08/29 03:27:01;;;;;;;21.92;12.93;;;;;;;21.14;78.06;99931.06;5045456;28;20025;-33
2022/08/29 03:29:27;;;;;;;19.92;11.65;;;;;;;21.27;77.20;99931.13;5047052;28;20155;-30
2022/08/29 03:31:57;;;;;;;15.32;10.95;;;;;;;21.30;76.49;99947.94;5046432;28;20468;-28
2022/08/29 03:34:23;;;;;;;17.73;10.80;;;;;;;21.18;77.07;99929.38;5045396;28;20044;-36
2022/08/29 03:36:49;;;;;;;16.42;11.80;;;;;;;21.00;78.26;99958.06;5045530;28;20071;-29
2022/08/29 03:39:14;;;;;;;19.20;11.10;;;;;;;21.48;76.84;99957.19;5046876;28;20021;-30
2022/08/29 03:41:40;;;;;;;18.48;11.52;;;;;;;21.46;75.97;99947.44;5046896;28;20051;-28
2022/08/29 03:44:05;;;;;;;24.42;12.25;;;;;;;21.25;76.83;99944.19;5046635;28;20070;-29
2022/08/29 03:46:31;;;;;;;20.63;12.05;;;;;;;21.51;76.24;99951.97;5046655;28;20067;-29
2022/08/29 03:48:56;;;;;;;20.33;12.10;;;;;;;21.60;76.07;99958.34;5061950;28;20052;-27
2022/08/29 03:51:22;;;;;;;18.27;11.88;;;;;;;21.36;76.60;99944.03;5066856;28;20048;-30
2022/08/29 03:53:48;;;;;;;14.93;10.38;;;;;;;20.79;79.25;99941.28;5048376;28;20028;-29
2022/08/29 03:56:14;;;;;;;17.63;11.15;;;;;;;20.59;81.49;99959.38;5048404;28;20096;-30
2022/08/29 03:58:39;;;;;;;27.55;11.98;;;;;;;20.69;81.23;99946.81;5048598;28;20025;-29
2022/08/29 04:01:05;;;;;;;20.25;11.15;;;;;;;20.52;80.94;99941.84;5066550;28;20033;-29
2022/08/29 04:03:31;;;;;;;16.50;11.20;;;;;;;20.66;80.47;99948.19;5066841;28;20017;-30
2022/08/29 04:05:57;;;;;;;16.50;11.18;;;;;;;20.97;78.50;99945.91;5048302;28;20107;-28
2022/08/29 04:08:22;;;;;;;16.67;10.73;;;;;;;20.74;79.96;99955.69;5048567;28;20127;-32
2022/08/29 04:10:48;;;;;;;17.83;10.63;;;;;;;21.04;79.05;99969.94;5052096;28;20043;-31
2022/08/29 04:13:14;;;;;;;14.82;10.68;;;;;;;21.15;78.31;99960.59;5052442;28;20028;-31
2022/08/29 04:15:41;;;;;;;20.33;11.38;;;;;;;21.05;78.45;99971.56;5070692;28;20040;-29
2022/08/29 04:18:08;;;;;;;37.20;13.13;;;;;;;20.63;80.20;99965.81;5052443;28;20051;-32
2022/08/29 04:20:40;;;;;;;21.30;11.38;;;;;;;20.43;82.82;99966.84;5052620;28;20435;-29
2022/08/29 04:23:06;;;;;;;19.90;10.88;;;;;;;20.34;83.10;99968.53;5052342;28;20411;-28
2022/08/29 04:25:35;;;;;;;20.83;10.32;;;;;;;20.35;83.15;99953.09;5052424;28;20103;-28
2022/08/29 04:28:05;;;;;;;23.73;11.05;;;;;;;20.36;82.08;99952.03;5051749;28;20433;-28
2022/08/29 04:30:31;;;;;;;21.52;11.07;;;;;;;20.43;82.97;99971.44;5070713;28;20036;-29
2022/08/29 04:32:57;;;;;;;20.67;11.13;;;;;;;20.57;81.71;99960.72;5070136;28;20028;-31
2022/08/29 04:35:23;;;;;;;18.25;11.48;;;;;;;20.77;81.85;99971.34;5070277;28;20060;-36
2022/08/29 04:37:48;;;;;;;15.68;11.35;;;;;;;21.19;78.93;99956.19;5070474;28;20498;-31
2022/08/29 04:40:17;;;;;;;16.73;11.32;;;;;;;21.39;79.04;99976.00;5069949;28;20039;-33
2022/08/29 04:42:45;;;;;;;22.30;12.77;;;;;;;21.19;80.41;99982.53;5052120;28;20028;-30
2022/08/29 04:45:13;;;;;;;19.73;13.20;;;;;;;21.36;79.25;99993.66;5070227;28;20124;-31
2022/08/29 04:47:39;;;;;;;21.38;13.15;;;;;;;21.40;78.83;99980.31;5069888;28;20049;-31
2022/08/29 04:50:07;;;;;;;22.98;12.13;;;;;;;21.56;78.41;99991.81;5051698;28;20467;-29
2022/08/29 04:52:32;;;;;;;22.52;14.40;;;;;;;21.56;78.79;99986.38;5069976;28;20064;-28
2022/08/29 04:54:59;;;;;;;20.98;13.77;;;;;;;21.70;77.55;99997.28;5069595;28;20055;-29
2022/08/29 04:57:24;;;;;;;22.73;13.85;;;;;;;21.77;77.00;99982.22;5051994;28;20060;-29
2022/08/29 04:59:57;;;;;;;19.88;13.15;;;;;;;21.86;76.70;99987.78;5069934;28;20038;-29
2022/08/29 05:02:24;;;;;;;20.00;12.85;;;;;;;22.10;77.31;100000.44;5069701;28;20109;-29
2022/08/29 05:04:55;;;;;;;14.20;12.10;;;;;;;22.07;77.76;99997.22;5051609;28;20024;-29
2022/08/29 05:07:24;;;;;;;18.40;11.95;;;;;;;22.00;77.99;99994.06;5069669;28;20058;-30
2022/08/29 05:09:57;;;;;;;18.77;12.20;;;;;;;22.14;75.34;99996.84;5069532;28;20036;-30
2022/08/29 05:12:22;;;;;;;19.92;12.90;;;;;;;22.34;75.68;99995.72;5069839;28;20017;-32
2022/08/29 05:14:48;;;;;;;17.88;11.85;;;;;;;22.48;73.56;99990.31;5069420;28;20075;-28
2022/08/29 05:17:13;;;;;;;15.80;11.70;;;;;;;22.69;75.04;100012.47;5069485;28;20733;-30
2022/08/29 05:19:42;;;;;;;19.48;11.10;;;;;;;22.79;73.48;100006.03;5069383;28;20040;-29
2022/08/29 05:22:09;;;;;;;21.50;12.32;;;;;;;22.82;73.14;99979.06;5049861;28;20025;-28
2022/08/29 05:24:36;;;;;;;17.02;12.18;;;;;;;23.07;72.57;99995.97;5051321;28;20127;-34
2022/08/29 05:27:10;;;;;;;17.15;12.13;;;;;;;23.05;71.43;99996.28;5068997;28;20028;-30
2022/08/29 05:29:44;;;;;;;19.90;13.57;;;;;;;23.21;70.71;100007.66;5051198;28;20033;-34
2022/08/29 05:32:11;;;;;;;17.75;13.45;;;;;;;22.82;71.31;100008.97;5051040;28;20033;-32
2022/08/29 05:34:38;;;;;;;23.45;12.60;;;;;;;22.95;72.18;100003.81;5069090;28;20527;-28
2022/08/29 05:37:10;;;;;;;17.17;11.95;;;;;;;22.99;70.81;99999.38;5068946;28;20031;-30
2022/08/29 05:39:37;;;;;;;15.98;11.48;;;;;;;23.18;69.41;100010.97;5069252;28;20039;-33
2022/08/29 05:42:05;;;;;;;20.73;12.20;;;;;;;23.36;69.15;99997.53;5050597;28;20107;-28
2022/08/29 05:44:33;;;;;;;20.17;11.73;;;;;;;23.73;68.33;100018.19;5069190;28;20036;-29
2022/08/29 05:47:04;;;;;;;17.63;11.38;;;;;;;24.00;67.17;100020.00;5050615;28;20043;-29
2022/08/29 05:49:30;;;;;;;17.65;11.15;;;;;;;24.14;67.24;100019.97;5069061;28;20568;-32
2022/08/29 05:51:56;;;;;;;20.33;11.35;;;;;;;24.28;66.70;100022.63;5068823;28;20107;-32
2022/08/29 05:54:23;;;;;;;20.10;12.00;;;;;;;24.28;66.57;100006.25;5050853;28;20527;-29
2022/08/29 05:56:49;;;;;;;25.60;12.25;;;;;;;24.40;66.71;100013.88;5050566;28;20031;-29
2022/08/29 05:59:16;;;;;;;16.27;11.25;;;;;;;24.38;66.75;100016.09;5050659;28;20040;-33
2022/08/29 06:01:42;;;;;;;16.38;10.07;;;;;;;24.44;66.15;100009.41;5068301;28;20035;-32
2022/08/29 06:04:08;;;;;;;16.80;10.35;;;;;;;24.66;65.25;100023.00;5050706;28;20024;-29
2022/08/29 06:06:34;;;;;;;14.40;10.18;;;;;;;24.70;66.04;100023.16;5068869;28;20500;-29
2022/08/29 06:08:59;;;;;;;14.68;10.45;;;;;;;24.83;66.17;100027.72;5068525;28;20036;-29
2022/08/29 06:11:29;;;;;;;14.73;9.52;;;;;;;24.90;62.85;100015.53;5050330;28;20070;-28
2022/08/29 06:13:55;;;;;;;16.75;9.80;;;;;;;25.11;62.60;100032.94;5050111;28;20036;-34
2022/08/29 06:16:23;;;;;;;18.17;9.23;;;;;;;25.22;58.88;100033.47;5068147;28;20025;-30
2022/08/29 06:18:49;;;;;;;;;;;;;;;25.05;60.10;100017.84;5050722;28;20032;-29
2022/08/29 06:21:15;;;;;;;14.25;9.13;;;;;;;25.11;61.93;100022.03;5068251;28;20298;-30
2022/08/29 06:23:42;;;;;;;17.30;9.20;;;;;;;25.22;61.02;100015.16;5050071;28;20056;-35
2022/08/29 06:26:09;;;;;;;13.23;8.73;;;;;;;25.15;60.96;100006.63;5050018;28;20029;-29
2022/08/29 06:28:37;;;;;;;15.73;10.50;;;;;;;25.00;60.53;100010.59;5050286;28;20369;-29
2022/08/29 06:31:12;;;;;;;16.80;9.57;;;;;;;25.29;59.84;100022.09;5049939;28;20039;-29
2022/08/29 06:33:39;;;;;;;22.83;16.25;;;;;;;25.32;60.58;100021.47;5050230;28;20056;-30
2022/08/29 06:36:07;;;;;;;15.40;9.43;;;;;;;25.54;59.56;100026.78;5049940;28;20032;-32
2022/08/29 06:38:33;;;;;;;15.98;8.90;;;;;;;25.62;58.98;100036.09;5050210;28;20068;-31
2022/08/29 06:41:06;;;;;;;14.98;10.32;;;;;;;25.65;58.82;100019.88;5049738;28;20024;-31
2022/08/29 06:43:32;;;;;;;14.77;9.60;;;;;;;25.96;57.60;100032.56;5049879;28;20029;-32
2022/08/29 06:45:57;;;;;;;15.43;11.02;;;;;;;26.15;58.65;100020.50;5067456;28;20044;-29
2022/08/29 06:48:24;;;;;;;15.63;9.02;;;;;;;26.26;57.46;100038.19;5067733;28;20318;-31
2022/08/29 06:50:49;;;;;;;16.15;9.20;;;;;;;26.28;56.34;100046.84;5049598;28;20056;-31
2022/08/29 06:53:15;;;;;;;15.90;8.68;;;;;;;26.17;59.01;100035.44;5067650;28;20024;-29
2022/08/29 06:55:40;;;;;;;14.82;9.13;;;;;;;26.33;57.17;100024.78;5067681;28;20052;-30
2022/08/29 06:58:06;;;;;;;14.18;9.38;;;;;;;26.41;55.81;100018.50;5067334;28;20044;-30
2022/08/29 07:00:32;;;;;;;16.58;9.15;;;;;;;26.56;56.71;100019.91;5049879;28;20043;-37
2022/08/29 07:02:57;;;;;;;15.73;8.55;;;;;;;26.81;55.43;100036.59;5049454;28;20099;-30
2022/08/29 07:05:23;;;;;;;13.73;8.80;;;;;;;27.02;54.69;100012.78;5067522;28;20669;-29
2022/08/29 07:07:50;;;;;;;17.90;8.90;;;;;;;27.15;53.79;100030.09;5049198;28;20122;-29
2022/08/29 07:10:16;;;;;;;15.67;8.73;;;;;;;27.15;52.94;100035.56;5066973;28;20101;-28
2022/08/29 07:12:42;;;;;;;12.80;8.25;;;;;;;27.34;51.78;100031.63;5048965;28;20039;-32
2022/08/29 07:15:08;;;;;;;13.20;8.05;;;;;;;27.40;52.46;100036.59;5067355;28;20028;-31
2022/08/29 07:17:34;;;;;;;13.57;7.53;;;;;;;27.67;53.15;100030.94;5049078;28;20089;-29
2022/08/29 07:20:00;;;;;;;16.75;8.57;;;;;;;27.72;50.34;100034.25;5066834;28;20040;-32
2022/08/29 07:22:25;;;;;;;13.95;7.82;;;;;;;27.86;52.60;100028.50;5049041;28;20029;-29
2022/08/29 07:24:54;;;;;;;30.58;8.48;;;;;;;27.87;48.49;100041.09;5048927;28;20029;-31
2022/08/29 07:27:20;;;;;;;15.63;8.10;;;;;;;27.80;50.40;100027.09;5049098;28;20035;-29
2022/08/29 07:29:46;;;;;;;18.17;7.60;;;;;;;27.92;49.81;100032.66;5066970;28;20029;-28
2022/08/29 07:32:11;;;;;;;14.68;8.23;;;;;;;28.03;47.63;100035.78;5048777;28;20024;-32
2022/08/29 07:34:37;;;;;;;15.75;8.80;;;;;;;27.96;51.23;100041.00;5066809;28;20032;-29
2022/08/29 07:37:03;;;;;;;14.63;9.02;;;;;;;27.97;49.57;100037.94;5067002;28;20044;-32
2022/08/29 07:39:29;;;;;;;15.07;9.30;;;;;;;27.66;52.68;100016.41;5048740;28;20024;-33
2022/08/29 07:41:55;;;;;;;17.70;9.15;;;;;;;27.78;52.64;100032.91;5048552;28;20074;-30
2022/08/29 07:44:20;;;;;;;15.30;9.15;;;;;;;27.82;51.04;100011.13;5066427;28;20029;-29
2022/08/29 07:46:46;;;;;;;15.93;8.93;;;;;;;28.11;49.62;100031.34;5067070;28;20115;-32
2022/08/29 07:49:11;;;;;;;14.82;8.90;;;;;;;28.05;47.25;100034.31;5048606;28;20055;-33
2022/08/29 07:51:38;;;;;;;14.48;8.60;;;;;;;28.21;47.24;100042.69;5048818;28;20205;-29
2022/08/29 07:54:05;;;;;;;17.55;8.63;;;;;;;27.95;47.61;100022.94;5066783;28;20568;-30
2022/08/29 07:56:37;;;;;;;16.73;8.13;;;;;;;28.14;46.92;100019.72;5048577;28;20103;-30
2022/08/29 07:59:02;;;;;;;16.55;9.02;;;;;;;28.16;47.65;100012.75;5049075;28;20028;-33
2022/08/29 08:01:28;;;;;;;12.73;8.25;;;;;;;28.23;46.73;100018.47;5066956;28;20043;-30
2022/08/29 08:03:54;;;;;;;17.45;7.75;;;;;;;28.66;46.56;100024.63;5066971;28;20098;-32
2022/08/29 08:06:22;;;;;;;13.23;6.97;;;;;;;28.60;46.17;100015.03;5066639;28;20040;-33
2022/08/29 08:08:48;;;;;;;15.80;7.63;;;;;;;28.85;46.19;100026.81;5048824;28;20067;-37
2022/08/29 08:11:14;;;;;;;13.18;8.30;;;;;;;29.01;46.56;100016.75;5048969;28;20029;-28
2022/08/29 08:13:40;;;;;;;13.30;7.60;;;;;;;29.09;46.45;100008.72;5066717;28;20415;-33
2022/08/29 08:16:09;;;;;;;15.50;7.57;;;;;;;29.23;44.15;100023.72;5048313;28;20031;-30
2022/08/29 08:18:36;;;;;;;11.95;6.85;;;;;;;29.28;43.63;99999.91;5048630;28;20032;-30
2022/08/29 08:21:02;;;;;;;13.38;7.63;;;;;;;29.16;44.46;100012.53;5048470;28;20067;-29
2022/08/29 08:23:28;;;;;;;13.50;6.68;;;;;;;29.27;44.36;100017.56;5048202;28;20139;-29
2022/08/29 08:25:54;;;;;;;16.63;8.15;;;;;;;29.48;43.88;100006.41;5048640;28;20551;-36
2022/08/29 08:28:19;;;;;;;13.27;7.13;;;;;;;29.53;43.37;100006.16;5066391;28;20077;-29
2022/08/29 08:30:45;;;;;;;11.55;6.85;;;;;;;29.63;41.72;100006.47;5066553;28;20103;-31
2022/08/29 08:33:11;;;;;;;14.45;7.65;;;;;;;29.66;41.02;99996.72;5066539;28;20066;-29
2022/08/29 08:35:37;;;;;;;11.18;7.72;;;;;;;29.87;42.43;99998.50;5048421;28;20424;-29
2022/08/29 08:38:05;;;;;;;16.83;7.97;;;;;;;30.05;43.41;99997.03;5047918;28;20025;-29
2022/08/29 08:40:31;;;;;;;16.50;7.88;;;;;;;30.11;42.64;100006.63;5048408;28;20492;-37
2022/08/29 08:43:00;;;;;;;12.85;7.70;;;;;;;30.31;41.97;100007.56;5066534;28;20020;-29
2022/08/29 08:45:41;;;;;;;13.18;7.93;;;;;;;30.23;43.48;99984.53;5066503;28;20029;-29
2022/08/29 08:48:09;;;;;;;17.88;7.70;;;;;;;30.24;43.79;100001.88;5047672;28;20048;-30
2022/08/29 08:50:48;;;;;;;13.32;7.65;;;;;;;30.56;41.47;100004.63;5048046;28;20025;-30
2022/08/29 08:53:20;;;;;;;19.67;7.15;;;;;;;30.83;40.14;99978.97;5048344;28;20032;-29
2022/08/29 08:55:48;;;;;;;9.40;6.72;;;;;;;31.10;38.73;100009.50;5048511;28;20031;-30
2022/08/29 08:58:16;;;;;;;14.65;7.78;;;;;;;30.77;40.08;100007.94;5051632;28;20029;-31
2022/08/29 09:00:59;;;;;;;21.27;7.75;;;;;;;31.06;40.27;100003.13;5069696;28;20032;-29
2022/08/29 09:04:01;;;;;;;11.93;7.60;;;;;;;31.11;41.86;100005.56;5051834;28;20032;-34
2022/08/29 09:06:56;;;;;;;15.95;7.55;;;;;;;31.30;42.39;100001.25;5069787;28;20101;-31
2022/08/29 09:09:40;;;;;;;12.93;7.32;;;;;;;31.38;41.63;99986.47;5051520;28;20036;-30
2022/08/29 09:12:40;;;;;;;10.82;6.80;;;;;;;31.86;38.70;99995.34;5069356;28;20104;-32
2022/08/29 09:15:15;;;;;;;12.18;7.00;;;;;;;31.82;37.96;99986.22;5051654;28;20492;-29
2022/08/29 09:18:03;;;;;;;15.20;6.45;;;;;;;32.17;37.69;99988.84;5069408;28;20016;-29
2022/08/29 09:20:34;;;;;;;12.70;6.80;;;;;;;32.12;36.75;99972.63;5069403;28;20103;-33
2022/08/29 09:23:06;;;;;;;12.18;6.78;;;;;;;32.58;38.53;99980.88;5069531;28;20020;-31
2022/08/29 09:25:35;;;;;;;14.98;6.80;;;;;;;32.76;36.64;99974.84;5069336;28;20028;-30
2022/08/29 09:28:04;;;;;;;17.98;7.53;;;;;;;32.96;38.57;99968.06;5069109;28;20028;-34
2022/08/29 09:30:32;;;;;;;15.10;7.07;;;;;;;32.77;36.85;99971.69;5051399;28;20032;-29
2022/08/29 09:33:11;;;;;;;12.77;7.47;;;;;;;32.81;37.80;99963.47;5069629;28;20055;-30
2022/08/29 09:35:45;;;;;;;15.93;6.25;;;;;;;33.04;35.14;99971.72;5051138;28;20067;-30
2022/08/29 09:38:17;;;;;;;14.00;6.88;;;;;;;33.20;35.21;99977.88;5050989;28;20028;-30
2022/08/29 09:40:59;;;;;;;14.63;6.63;;;;;;;33.13;36.45;99972.25;5069176;28;20109;-33
2022/08/29 09:43:27;;;;;;;14.35;6.85;;;;;;;33.39;35.14;99973.38;5051154;28;20115;-32
2022/08/29 09:46:10;;;;;;;17.55;6.97;;;;;;;33.83;36.32;99965.19;5069118;28;20427;-32
2022/08/29 09:48:39;;;;;;;18.00;6.65;;;;;;;34.03;34.90;99951.19;5050660;28;20056;-31
2022/08/29 09:51:23;;;;;;;12.98;6.15;;;;;;;34.13;32.88;99966.28;5050568;28;20430;-31
2022/08/29 09:53:51;;;;;;;15.60;6.55;;;;;;;34.21;32.08;99954.13;5050788;28;20025;-29
2022/08/29 09:56:24;;;;;;;12.15;5.75;;;;;;;34.57;31.57;99965.47;5068403;28;20119;-32
2022/08/29 09:58:59;;;;;;;13.63;6.30;;;;;;;34.55;31.18;99960.34;5050865;28;20728;-30
2022/08/29 10:01:25;;;;;;;12.65;6.20;;;;;;;34.63;30.57;99936.25;5050174;28;20120;-30
2022/08/29 10:03:57;;;;;;;13.57;6.22;;;;;;;34.76;31.56;99947.84;5068961;28;20033;-31
2022/08/29 10:06:38;;;;;;;13.85;6.13;;;;;;;34.53;31.87;99948.88;5068488;28;20483;-31
2022/08/29 10:09:08;;;;;;;11.32;6.20;;;;;;;35.11;33.97;99947.25;5068803;28;20029;-32
2022/08/29 10:11:55;;;;;;;15.90;6.43;;;;;;;35.06;33.45;99927.41;5050530;28;20033;-31
2022/08/29 10:14:35;;;;;;;10.85;6.18;;;;;;;35.29;32.58;99943.78;5050523;28;20028;-32
2022/08/29 10:19:54;;;;;;;15.95;7.03;;;;;;;35.17;32.13;99942.16;5068251;28;20042;-38
2022/08/29 10:22:43;;;;;;;15.35;6.40;;;;;;;34.99;33.01;99922.66;5050357;28;20025;-30
2022/08/29 10:25:41;;;;;;;13.32;6.30;;;;;;;35.37;31.58;99931.53;5050585;28;20040;-32
2022/08/29 10:28:15;;;;;;;14.02;7.15;;;;;;;35.86;33.11;99923.75;5064799;28;20040;-37
2022/08/29 10:30:40;;;;;;;14.18;6.30;;;;;;;35.73;31.85;99920.56;5068007;28;20055;-32
2022/08/29 10:33:27;;;;;;;16.00;6.75;;;;;;;35.86;30.21;99924.56;5068110;28;20531;-33
2022/08/29 10:35:59;;;;;;;13.60;5.97;;;;;;;36.30;29.81;99922.59;5068309;28;20047;-30
2022/08/29 10:38:24;;;;;;;13.95;6.70;;;;;;;36.20;29.26;99915.88;5068116;28;20119;-32
2022/08/29 10:41:00;;;;;;;14.05;5.85;;;;;;;36.43;31.76;99909.09;5068273;28;20218;-31
2022/08/29 10:43:43;;;;;;;15.90;6.15;;;;;;;36.30;27.95;99915.06;5068215;28;20133;-29
2022/08/29 10:46:24;;;;;;;15.80;6.22;;;;;;;35.68;28.45;99913.44;5067530;28;20043;-35
2022/08/29 10:49:17;;;;;;;13.32;5.82;;;;;;;36.18;30.43;99907.13;5049643;28;20055;-30
2022/08/29 10:52:01;;;;;;;11.00;6.00;;;;;;;36.51;27.91;99907.91;5049972;28;20115;-30
2022/08/29 10:54:57;;;;;;;13.30;5.75;;;;;;;35.76;28.73;99906.72;5067950;28;20024;-29
2022/08/29 10:57:49;;;;;;;14.43;6.03;;;;;;;36.69;30.46;99899.56;5038666;28;20515;-30
2022/08/29 11:00:21;;;;;;;11.57;6.10;;;;;;;36.79;28.88;99899.53;5049321;28;20798;-30
2022/08/29 11:03:14;;;;;;;13.15;5.68;;;;;;;36.82;27.71;99894.34;5067577;28;20024;-31
2022/08/29 11:05:47;;;;;;;11.73;5.50;;;;;;;37.13;28.88;99882.34;5067662;28;20028;-33
2022/08/29 11:08:18;;;;;;;15.02;5.72;;;;;;;37.21;28.81;99891.47;5049284;28;20109;-36
2022/08/29 11:10:48;;;;;;;16.42;6.07;;;;;;;37.43;29.08;99883.75;5049661;28;20025;-32
2022/08/29 11:13:20;;;;;;;15.50;5.68;;;;;;;37.44;26.95;99879.81;5049503;28;20036;-35
2022/08/29 11:16:01;;;;;;;13.43;6.47;;;;;;;37.70;28.26;99881.25;5049226;28;20031;-31
2022/08/29 11:18:39;;;;;;;13.65;5.78;;;;;;;37.96;29.73;99871.47;5066369;28;20032;-29
2022/08/29 11:21:14;;;;;;;17.92;5.97;;;;;;;37.15;26.11;99874.41;5033466;28;20036;-30
2022/08/29 11:23:46;;;;;;;12.85;6.00;;;;;;;36.86;28.89;99875.69;5049007;28;20035;-30
2022/08/29 11:26:21;;;;;;;13.52;7.18;;;;;;;37.04;32.51;99868.06;5049082;28;20024;-30
2022/08/29 11:29:00;;;;;;;16.17;7.40;;;;;;;36.81;31.13;99860.22;5067175;28;20162;-33
2022/08/29 11:31:34;;;;;;;22.98;8.07;;;;;;;36.66;31.85;99864.22;5049225;28;20028;-31
2022/08/29 11:34:19;;;;;;;19.02;6.45;;;;;;;36.59;28.38;99856.69;5066732;28;20024;-29
2022/08/29 11:37:04;;;;;;;15.85;7.05;;;;;;;36.78;29.19;99861.81;5048941;28;20149;-30